createdAt,value
2019-02-03T00:02:01.775Z,96660.57
2019-02-03T00:04:31.941Z,96657.82
2019-02-03T00:07:03.602Z,96660.16
2019-02-03T00:09:34.052Z,96665.08
2019-02-03T00:12:04.498Z,96652.73
2019-02-03T00:14:34.802Z,96648.78
2019-02-03T00:17:05.525Z,96650.86
2019-02-03T00:19:35.787Z,96656.55
2019-02-03T00:22:08.124Z,96657.31
2019-02-03T00:24:38.504Z,96657.31
2019-02-03T00:27:08.893Z,96645.86
2019-02-03T00:29:38.594Z,96655.95
2019-02-03T00:32:09.010Z,96657.27
2019-02-03T00:34:39.339Z,96648.95
2019-02-03T00:37:16.757Z,96643.86
2019-02-03T00:39:41.686Z,96652.05
2019-02-03T00:42:12.045Z,96653.23
2019-02-03T00:44:42.382Z,96647.30
2019-02-03T00:47:12.866Z,96655.06
2019-02-03T00:49:43.319Z,96649.88
2019-02-03T00:52:13.969Z,96646.74
2019-02-03T00:54:44.401Z,96649.77
2019-02-03T00:57:14.800Z,96650.44
2019-02-03T00:59:45.204Z,96643.73
2019-02-03T01:02:15.660Z,96648.66
2019-02-03T01:04:46.517Z,96646.38
2019-02-03T01:07:27.205Z,96650.22
2019-02-03T01:09:50.197Z,96649.17
2019-02-03T01:12:20.803Z,96651.24
2019-02-03T01:14:51.255Z,96646.70
2019-02-03T01:17:21.961Z,96652.42
2019-02-03T01:19:52.205Z,96665.29
2019-02-03T01:22:22.659Z,96667.53
2019-02-03T01:24:52.987Z,96668.84
2019-02-03T01:27:23.413Z,96663.29
2019-02-03T01:29:54.066Z,96661.52
2019-02-03T01:32:24.479Z,96678.02
2019-02-03T01:34:54.800Z,96684.46
2019-02-03T01:37:25.142Z,96673.14
2019-02-03T01:39:55.570Z,96663.08
2019-02-03T01:42:26.294Z,96655.86
2019-02-03T01:44:56.642Z,96658.03
2019-02-03T01:47:27.033Z,96661.92
2019-02-03T01:49:57.419Z,96677.13
2019-02-03T01:52:27.717Z,96676.66
2019-02-03T01:54:58.321Z,96681.36
2019-02-03T01:57:28.678Z,96689.70
2019-02-03T01:59:59.103Z,96714.44
2019-02-03T02:02:29.477Z,96716.53
2019-02-03T02:04:59.699Z,96725.55
2019-02-03T02:07:30.425Z,96736.42
2019-02-03T02:10:00.733Z,96743.05
2019-02-03T02:12:30.956Z,96744.98
2019-02-03T02:15:01.351Z,96739.42
2019-02-03T02:17:31.664Z,96744.69
2019-02-03T02:20:01.931Z,96746.09
2019-02-03T02:22:32.138Z,96744.27
2019-02-03T02:25:02.284Z,96746.76
2019-02-03T02:27:32.025Z,96753.03
2019-02-03T02:30:02.362Z,96756.66
2019-02-03T02:32:32.706Z,96769.11
2019-02-03T02:35:03.334Z,96776.64
2019-02-03T02:37:33.604Z,96786.66
2019-02-03T02:40:12.848Z,96792.19
2019-02-03T02:42:37.305Z,96795.05
2019-02-03T02:45:08.345Z,96795.72
2019-02-03T02:47:38.932Z,96803.21
2019-02-03T02:50:16.552Z,96805.34
2019-02-03T02:52:50.172Z,96796.80
2019-02-03T02:55:21.830Z,96806.45
2019-02-03T02:57:53.539Z,96804.77
2019-02-03T03:00:24.137Z,96799.31
2019-02-03T03:02:55.535Z,96804.84
2019-02-03T03:05:27.925Z,96811.56
2019-02-03T03:07:58.176Z,96810.41
2019-02-03T03:10:28.706Z,96811.80
2019-02-03T03:12:59.202Z,96819.09
2019-02-03T03:15:31.691Z,96823.91
2019-02-03T03:18:02.093Z,96819.69
2019-02-03T03:20:32.446Z,96814.14
2019-02-03T03:23:02.825Z,96811.45
2019-02-03T03:25:34.317Z,96813.06
2019-02-03T03:28:04.625Z,96806.25
2019-02-03T03:30:35.017Z,96816.27
2019-02-03T03:33:05.455Z,96814.89
2019-02-03T03:35:35.895Z,96817.97
2019-02-03T03:38:06.384Z,96816.77
2019-02-03T03:40:36.889Z,96815.04
2019-02-03T03:43:07.246Z,96808.02
2019-02-03T03:45:37.734Z,96806.55
2019-02-03T03:48:08.120Z,96804.53
2019-02-03T03:50:38.570Z,96808.98
2019-02-03T03:53:08.908Z,96809.34
2019-02-03T03:55:39.139Z,96814.30
2019-02-03T03:58:09.600Z,96822.41
2019-02-03T04:00:39.987Z,96826.00
2019-02-03T04:03:11.412Z,96824.83
2019-02-03T04:05:42.001Z,96829.48
2019-02-03T04:08:12.387Z,96827.58
2019-02-03T04:10:42.788Z,96838.69
2019-02-03T04:13:13.235Z,96841.16
2019-02-03T04:15:44.585Z,96857.23
2019-02-03T04:18:16.878Z,96857.43
2019-02-03T04:20:47.162Z,96860.36
2019-02-03T04:23:19.575Z,96868.18
2019-02-03T04:26:04.447Z,96875.62
2019-02-03T04:28:34.842Z,96890.52
2019-02-03T04:31:08.446Z,96887.14
2019-02-03T04:33:53.194Z,96889.34
2019-02-03T04:36:23.636Z,96891.23
2019-02-03T04:38:58.163Z,96902.70
2019-02-03T04:41:25.911Z,96903.70
2019-02-03T04:43:56.421Z,96905.81
2019-02-03T04:46:26.733Z,96905.15
2019-02-03T04:48:56.951Z,96906.91
2019-02-03T04:51:28.283Z,96918.42
2019-02-03T04:53:58.434Z,96915.89
2019-02-03T04:56:29.205Z,96920.78
2019-02-03T04:58:59.407Z,96921.69
2019-02-03T05:01:29.707Z,96917.38
2019-02-03T05:04:00.091Z,96916.03
2019-02-03T05:06:30.408Z,96921.83
2019-02-03T05:09:10.617Z,96929.91
2019-02-03T05:11:32.743Z,96934.45
2019-02-03T05:14:03.027Z,96932.36
2019-02-03T05:16:33.315Z,96946.94
2019-02-03T05:19:03.668Z,96950.94
2019-02-03T05:21:33.901Z,96943.36
2019-02-03T05:24:04.090Z,96950.05
2019-02-03T05:26:34.380Z,96957.80
2019-02-03T05:29:04.734Z,96957.52
2019-02-03T05:31:34.927Z,96969.88
2019-02-03T05:34:05.203Z,96970.88
2019-02-03T05:36:35.551Z,96977.95
2019-02-03T05:39:08.359Z,96987.84
2019-02-03T05:41:38.826Z,96990.89
2019-02-03T05:44:09.228Z,96993.75
2019-02-03T05:46:39.564Z,96987.46
2019-02-03T05:49:09.956Z,97002.25
2019-02-03T05:51:40.181Z,97001.31
2019-02-03T05:54:10.550Z,97015.77
2019-02-03T05:56:41.106Z,97020.13
2019-02-03T05:59:11.354Z,97021.37
2019-02-03T06:01:41.474Z,97027.50
2019-02-03T06:04:11.763Z,97038.00
2019-02-03T06:06:42.172Z,97039.01
2019-02-03T06:09:12.538Z,97045.80
2019-02-03T06:11:42.711Z,97048.00
2019-02-03T06:14:12.953Z,97062.55
2019-02-03T06:16:43.386Z,97073.63
2019-02-03T06:19:13.757Z,97090.11
2019-02-03T06:21:44.016Z,97099.94
2019-02-03T06:24:14.326Z,97103.95
2019-02-03T06:26:44.909Z,97106.50
2019-02-03T06:29:15.221Z,97120.03
2019-02-03T06:31:45.401Z,97118.03
2019-02-03T06:34:15.648Z,97137.59
2019-02-03T06:36:45.924Z,97135.25
2019-02-03T06:39:16.584Z,97144.23
2019-02-03T06:41:46.949Z,97155.98
2019-02-03T06:44:17.124Z,97162.70
2019-02-03T06:46:53.799Z,97179.76
2019-02-03T06:49:42.860Z,97172.61
2019-02-03T06:52:14.100Z,97182.11
2019-02-03T06:54:44.464Z,97187.45
2019-02-03T06:57:14.909Z,97204.30
2019-02-03T06:59:50.877Z,97199.25
2019-02-03T07:02:17.761Z,97215.48
2019-02-03T07:04:47.980Z,97220.05
2019-02-03T07:07:18.283Z,97223.16
2019-02-03T07:09:59.719Z,97230.73
2019-02-03T07:12:20.517Z,97242.64
2019-02-03T07:14:50.830Z,97254.75
2019-02-03T07:17:21.105Z,97257.47
2019-02-03T07:19:51.554Z,97272.67
2019-02-03T07:22:21.410Z,97273.59
2019-02-03T07:24:51.628Z,97281.55
2019-02-03T07:27:21.916Z,97288.41
2019-02-03T07:29:53.456Z,97292.94
2019-02-03T07:32:23.600Z,97310.11
2019-02-03T07:34:53.978Z,97315.00
2019-02-03T07:37:24.281Z,97306.42
2019-02-03T07:39:54.501Z,97323.77
2019-02-03T07:42:24.772Z,97319.61
2019-02-03T07:44:55.219Z,97320.92
2019-02-03T07:47:25.545Z,97328.88
2019-02-03T07:49:55.828Z,97329.69
2019-02-03T07:52:25.968Z,97329.82
2019-02-03T07:54:56.167Z,97338.36
2019-02-03T07:57:26.480Z,97338.05
2019-02-03T07:59:56.846Z,97351.16
2019-02-03T08:02:27.168Z,97351.42
2019-02-03T08:04:58.399Z,97354.34
2019-02-03T08:07:29.578Z,97350.00
2019-02-03T08:09:59.898Z,97362.72
2019-02-03T08:12:30.287Z,97369.00
2019-02-03T08:15:00.824Z,97375.47
2019-02-03T08:17:31.467Z,97376.31
2019-02-03T08:20:01.833Z,97410.76
2019-02-03T08:22:32.187Z,97387.60
2019-02-03T08:25:02.620Z,97388.67
2019-02-03T08:27:32.812Z,97397.77
2019-02-03T08:30:05.235Z,97395.22
2019-02-03T08:32:35.637Z,97401.84
2019-02-03T08:35:07.111Z,97402.19
2019-02-03T08:37:37.494Z,97413.06
2019-02-03T08:40:14.902Z,97414.66
2019-02-03T08:42:45.565Z,97424.33
2019-02-03T08:45:18.604Z,97432.19
2019-02-03T08:47:49.139Z,97440.89
2019-02-03T08:50:20.918Z,97441.56
2019-02-03T08:52:52.036Z,97449.21
2019-02-03T08:55:22.560Z,97452.93
2019-02-03T08:57:52.907Z,97462.41
2019-02-03T09:00:25.963Z,97465.20
2019-02-03T09:02:56.388Z,97471.29
2019-02-03T09:05:26.948Z,97473.16
2019-02-03T09:07:57.420Z,97487.02
2019-02-03T09:10:27.859Z,97486.76
2019-02-03T09:12:58.271Z,97491.71
2019-02-03T09:15:28.802Z,97496.52
2019-02-03T09:17:59.104Z,97503.07
2019-02-03T09:20:31.665Z,97500.00
2019-02-03T09:23:02.389Z,97502.95
2019-02-03T09:25:33.116Z,97516.79
2019-02-03T09:28:03.536Z,97514.01
2019-02-03T09:30:34.954Z,97526.38
2019-02-03T09:33:06.026Z,97528.98
2019-02-03T09:35:36.586Z,97531.81
2019-02-03T09:38:08.545Z,97533.83
2019-02-03T09:40:39.203Z,97531.29
2019-02-03T09:43:09.646Z,97543.93
2019-02-03T09:45:40.055Z,97549.41
2019-02-03T09:48:10.684Z,97553.19
2019-02-03T09:50:41.110Z,97560.23
2019-02-03T09:53:11.496Z,97565.09
2019-02-03T09:55:41.972Z,97565.70
2019-02-03T09:58:12.355Z,97571.55
2019-02-03T10:00:42.971Z,97577.34
2019-02-03T10:03:13.707Z,97573.92
2019-02-03T10:05:44.184Z,97582.20
2019-02-03T10:08:16.079Z,97591.32
2019-02-03T10:10:47.974Z,97590.48
2019-02-03T10:13:18.395Z,97596.20
2019-02-03T10:15:48.813Z,97604.17
2019-02-03T10:18:18.698Z,97605.98
2019-02-03T10:20:49.189Z,97611.80
2019-02-03T10:23:19.459Z,97617.37
2019-02-03T10:25:49.912Z,97622.08
2019-02-03T10:28:20.283Z,97629.87
2019-02-03T10:30:50.646Z,97627.55
2019-02-03T10:33:20.574Z,97631.52
2019-02-03T10:35:51.403Z,97635.45
2019-02-03T10:38:21.837Z,97648.16
2019-02-03T10:40:52.365Z,97638.91
2019-02-03T10:43:22.909Z,97649.47
2019-02-03T10:45:53.372Z,97648.00
2019-02-03T10:48:24.018Z,97652.16
2019-02-03T10:50:54.835Z,97651.02
2019-02-03T10:53:25.330Z,97663.82
2019-02-03T10:55:55.719Z,97654.96
2019-02-03T10:58:26.105Z,97657.47
2019-02-03T11:00:56.667Z,97658.42
2019-02-03T11:03:27.312Z,97666.82
2019-02-03T11:05:59.458Z,97658.58
2019-02-03T11:08:29.929Z,97667.68
2019-02-03T11:11:00.522Z,97670.55
2019-02-03T11:13:30.962Z,97671.60
2019-02-03T11:16:08.471Z,97672.70
2019-02-03T11:18:39.117Z,97674.09
2019-02-03T11:21:09.599Z,97680.58
2019-02-03T11:23:40.791Z,97681.86
2019-02-03T11:26:11.195Z,97689.48
2019-02-03T11:28:41.849Z,97694.73
2019-02-03T11:31:12.298Z,97697.25
2019-02-03T11:33:42.560Z,97695.84
2019-02-03T11:36:12.884Z,97701.83
2019-02-03T11:38:43.149Z,97705.91
2019-02-03T11:41:13.620Z,97706.97
2019-02-03T11:43:44.801Z,97711.65
2019-02-03T11:46:15.522Z,97719.63
2019-02-03T11:48:48.856Z,97714.84
2019-02-03T11:51:19.415Z,97718.14
2019-02-03T11:53:49.750Z,97720.13
2019-02-03T11:56:20.226Z,97727.33
2019-02-03T11:58:50.584Z,97726.64
2019-02-03T12:01:20.873Z,97730.16
2019-02-03T12:03:50.737Z,97727.19
2019-02-03T12:06:20.991Z,97728.63
2019-02-03T12:08:51.245Z,97735.44
2019-02-03T12:11:21.644Z,97730.73
2019-02-03T12:13:51.848Z,97734.52
2019-02-03T12:16:22.193Z,97734.02
2019-02-03T12:18:52.409Z,97735.48
2019-02-03T12:21:22.804Z,97737.06
2019-02-03T12:23:53.191Z,97734.30
2019-02-03T12:26:23.519Z,97749.77
2019-02-03T12:28:53.970Z,97737.64
2019-02-03T12:31:24.569Z,97745.20
2019-02-03T12:33:55.876Z,97746.83
2019-02-03T12:36:26.284Z,97747.28
2019-02-03T12:39:01.831Z,97746.68
2019-02-03T12:41:32.259Z,97758.70
2019-02-03T12:44:02.806Z,97752.83
2019-02-03T12:46:33.215Z,97761.11
2019-02-03T12:49:03.644Z,97758.81
2019-02-03T12:51:34.025Z,97762.25
2019-02-03T12:54:04.998Z,97756.95
2019-02-03T12:56:35.586Z,97772.16
2019-02-03T12:59:06.045Z,97775.09
2019-02-03T13:01:36.569Z,97779.52
2019-02-03T13:04:07.474Z,97788.68
2019-02-03T13:06:38.206Z,97786.69
2019-02-03T13:09:11.087Z,97788.57
2019-02-03T13:11:41.433Z,97786.37
2019-02-03T13:14:12.600Z,97789.88
2019-02-03T13:16:43.125Z,97797.30
2019-02-03T13:19:15.650Z,97791.55
2019-02-03T13:21:46.214Z,97811.70
2019-02-03T13:24:18.604Z,97811.41
2019-02-03T13:26:48.599Z,97812.34
2019-02-03T13:29:18.991Z,97821.42
2019-02-03T13:31:49.373Z,97824.75
2019-02-03T13:34:20.033Z,97830.86
2019-02-03T13:36:50.267Z,97830.56
2019-02-03T13:39:20.601Z,97838.16
2019-02-03T13:41:50.947Z,97838.38
2019-02-03T13:44:21.145Z,97836.56
2019-02-03T13:46:51.885Z,97839.36
2019-02-03T13:49:22.138Z,97853.19
2019-02-03T13:51:52.633Z,97854.44
2019-02-03T13:54:22.809Z,97860.81
2019-02-03T13:56:53.108Z,97865.67
2019-02-03T13:59:23.509Z,97874.86
2019-02-03T14:01:53.786Z,97871.73
2019-02-03T14:04:24.178Z,97893.94
2019-02-03T14:06:54.453Z,97887.92
2019-02-03T14:09:24.776Z,97887.48
2019-02-03T14:11:55.100Z,97890.31
2019-02-03T14:14:25.384Z,97899.13
2019-02-03T14:16:55.696Z,97896.73
2019-02-03T14:19:25.938Z,97903.56
2019-02-03T14:21:56.329Z,97907.55
2019-02-03T14:24:26.714Z,97908.92
2019-02-03T14:26:57.137Z,97912.30
2019-02-03T14:29:27.497Z,97918.48
2019-02-03T14:31:57.971Z,97916.73
2019-02-03T14:34:28.303Z,97926.04
2019-02-03T14:36:58.969Z,97921.48
2019-02-03T14:39:29.550Z,97932.42
2019-02-03T14:41:59.850Z,97931.11
2019-02-03T14:44:30.139Z,97944.73
2019-02-03T14:47:00.794Z,97939.22
2019-02-03T14:49:31.513Z,97950.91
2019-02-03T14:52:02.993Z,97958.46
2019-02-03T14:54:34.468Z,97959.33
2019-02-03T14:57:04.974Z,97967.03
2019-02-03T14:59:36.391Z,97968.63
2019-02-03T15:02:07.672Z,97976.88
2019-02-03T15:04:37.598Z,97984.08
2019-02-03T15:07:07.998Z,97987.74
2019-02-03T15:09:38.236Z,97994.36
2019-02-03T15:12:08.589Z,97995.47
2019-02-03T15:14:38.956Z,97998.36
2019-02-03T15:17:09.304Z,97996.70
2019-02-03T15:19:39.649Z,98004.42
2019-02-03T15:22:09.991Z,98003.27
2019-02-03T15:24:40.110Z,98016.23
2019-02-03T15:27:11.431Z,98024.81
2019-02-03T15:29:41.765Z,98034.09
2019-02-03T15:32:12.149Z,98035.70
2019-02-03T15:34:42.543Z,98040.25
2019-02-03T15:37:12.799Z,98042.42
2019-02-03T15:39:43.050Z,98048.81
2019-02-03T15:42:13.357Z,98049.80
2019-02-03T15:44:43.661Z,98059.70
2019-02-03T15:47:14.077Z,98058.66
2019-02-03T15:49:44.359Z,98065.94
2019-02-03T15:52:14.824Z,98066.92
2019-02-03T15:54:45.261Z,98074.47
2019-02-03T15:57:18.252Z,98072.91
2019-02-03T15:59:47.865Z,98077.38
2019-02-03T16:02:18.273Z,98082.45
2019-02-03T16:04:48.628Z,98089.63
2019-02-03T16:07:19.352Z,98093.94
2019-02-03T16:09:50.424Z,98094.55
2019-02-03T16:12:20.852Z,98096.97
2019-02-03T16:14:51.114Z,98103.28
2019-02-03T16:17:21.520Z,98122.17
2019-02-03T16:19:51.868Z,98110.52
2019-02-03T16:22:22.225Z,98115.97
2019-02-03T16:24:52.668Z,98123.72
2019-02-03T16:27:23.020Z,98131.25
2019-02-03T16:29:54.068Z,98137.16
2019-02-03T16:32:24.624Z,98132.27
2019-02-03T16:34:55.041Z,98155.80
2019-02-03T16:37:25.336Z,98156.26
2019-02-03T16:39:55.826Z,98166.71
2019-02-03T16:42:26.267Z,98163.17
2019-02-03T16:44:56.368Z,98166.16
2019-02-03T16:47:26.704Z,98176.81
2019-02-03T16:49:57.105Z,98177.30
2019-02-03T16:52:27.429Z,98185.20
2019-02-03T16:54:57.817Z,98189.40
2019-02-03T16:57:28.178Z,98199.75
2019-02-03T16:59:58.562Z,98197.66
2019-02-03T17:02:29.216Z,98202.54
2019-02-03T17:04:59.665Z,98217.20
2019-02-03T17:07:29.948Z,98217.42
2019-02-03T17:10:00.343Z,98228.73
2019-02-03T17:12:30.697Z,98240.99
2019-02-03T17:15:01.104Z,98241.81
2019-02-03T17:17:31.564Z,98248.40
2019-02-03T17:20:02.900Z,98261.48
2019-02-03T17:22:33.970Z,98265.14
2019-02-03T17:25:05.139Z,98264.65
2019-02-03T17:27:35.455Z,98276.58
2019-02-03T17:30:06.809Z,98277.27
2019-02-03T17:32:37.426Z,98286.34
2019-02-03T17:35:08.997Z,98288.77
2019-02-03T17:37:39.399Z,98297.80
2019-02-03T17:40:12.020Z,98301.10
2019-02-03T17:42:43.490Z,98309.48
2019-02-03T17:45:19.598Z,98318.84
2019-02-03T17:47:50.003Z,98319.64
2019-02-03T17:50:21.847Z,98323.86
2019-02-03T17:52:52.229Z,98326.78
2019-02-03T17:55:23.143Z,98331.11
2019-02-03T17:57:53.632Z,98337.30
2019-02-03T18:00:33.877Z,98342.52
2019-02-03T18:03:04.238Z,98347.72
2019-02-03T18:05:34.687Z,98355.81
2019-02-03T18:08:06.111Z,98358.39
2019-02-03T18:10:36.960Z,98371.02
2019-02-03T18:13:09.719Z,98371.70
2019-02-03T18:15:40.038Z,98382.03
2019-02-03T18:18:10.680Z,98391.35
2019-02-03T18:20:41.249Z,98395.30
2019-02-03T18:23:11.770Z,98394.34
2019-02-03T18:25:42.141Z,98401.05
2019-02-03T18:28:12.560Z,98404.52
2019-02-03T18:30:43.012Z,98404.52
2019-02-03T18:33:20.167Z,98414.68
2019-02-03T18:35:50.297Z,98416.01
2019-02-03T18:38:20.545Z,98428.13
2019-02-03T18:40:50.934Z,98434.21
2019-02-03T18:43:21.516Z,98434.31
2019-02-03T18:45:51.934Z,98436.46
2019-02-03T18:48:22.366Z,98439.91
2019-02-03T18:50:52.682Z,98441.73
2019-02-03T18:53:23.101Z,98443.17
2019-02-03T18:55:52.941Z,98445.15
2019-02-03T18:58:23.342Z,98459.91
2019-02-03T19:00:55.324Z,98450.41
2019-02-03T19:03:25.748Z,98454.68
2019-02-03T19:05:56.164Z,98463.98
2019-02-03T19:08:26.650Z,98470.20
2019-02-03T19:10:57.147Z,98470.19
2019-02-03T19:13:27.731Z,98479.85
2019-02-03T19:15:58.287Z,98483.15
2019-02-03T19:18:28.720Z,98489.02
2019-02-03T19:20:59.119Z,98489.84
2019-02-03T19:23:29.442Z,98486.90
2019-02-03T19:26:00.280Z,98506.37
2019-02-03T19:28:30.717Z,98495.91
2019-02-03T19:31:01.025Z,98498.17
2019-02-03T19:33:31.417Z,98507.05
2019-02-03T19:36:01.820Z,98512.61
2019-02-03T19:38:32.073Z,98518.38
2019-02-03T19:41:02.466Z,98523.30
2019-02-03T19:43:32.930Z,98527.86
2019-02-03T19:46:03.276Z,98536.05
2019-02-03T19:48:33.424Z,98531.29
2019-02-03T19:51:03.806Z,98539.51
2019-02-03T19:53:33.958Z,98546.06
2019-02-03T19:56:04.474Z,98549.83
2019-02-03T19:58:34.889Z,98552.59
2019-02-03T20:01:05.199Z,98558.34
2019-02-03T20:03:35.511Z,98554.25
2019-02-03T20:06:06.061Z,98553.08
2019-02-03T20:08:36.453Z,98563.42
2019-02-03T20:11:07.079Z,98563.58
2019-02-03T20:13:37.789Z,98575.04
2019-02-03T20:16:08.334Z,98578.67
2019-02-03T20:18:39.457Z,98584.56
2019-02-03T20:21:12.852Z,98589.95
2019-02-03T20:23:47.238Z,98595.20
2019-02-03T20:26:17.814Z,98595.05
2019-02-03T20:28:48.179Z,98598.98
2019-02-03T20:31:24.300Z,98607.00
2019-02-03T20:33:54.682Z,98609.62
2019-02-03T20:36:25.049Z,98620.63
2019-02-03T20:38:55.282Z,98615.88
2019-02-03T20:41:25.617Z,98628.31
2019-02-03T20:43:56.821Z,98638.47
2019-02-03T20:46:27.130Z,98643.06
2019-02-03T20:48:57.373Z,98647.98
2019-02-03T20:51:28.188Z,98650.45
2019-02-03T20:53:58.801Z,98647.98
2019-02-03T20:56:28.756Z,98660.75
2019-02-03T20:58:59.067Z,98659.63
2019-02-03T21:01:29.672Z,98660.27
2019-02-03T21:03:59.997Z,98666.67
2019-02-03T21:06:31.528Z,98667.50
2019-02-03T21:09:02.312Z,98674.05
2019-02-03T21:11:32.710Z,98670.76
2019-02-03T21:14:03.301Z,98678.47
2019-02-03T21:16:33.673Z,98681.25
2019-02-03T21:19:03.974Z,98683.05
2019-02-03T21:21:34.627Z,98691.59
2019-02-03T21:24:05.158Z,98694.55
2019-02-03T21:26:35.452Z,98698.14
2019-02-03T21:29:06.370Z,98701.25
2019-02-03T21:31:36.832Z,98707.32
2019-02-03T21:34:07.557Z,98707.95
2019-02-03T21:36:37.918Z,98710.58
2019-02-03T21:39:09.633Z,98713.20
2019-02-03T21:41:40.047Z,98713.54
2019-02-03T21:44:10.651Z,98718.30
2019-02-03T21:46:40.991Z,98716.16
2019-02-03T21:49:11.303Z,98719.61
2019-02-03T21:51:41.870Z,98720.59
2019-02-03T21:54:15.064Z,98721.41
2019-02-03T21:56:45.518Z,98720.28
2019-02-03T21:59:15.917Z,98740.10
2019-02-03T22:01:46.263Z,98724.86
2019-02-03T22:04:16.499Z,98729.61
2019-02-03T22:06:46.795Z,98738.64
2019-02-03T22:09:17.091Z,98736.51
2019-02-03T22:11:47.383Z,98738.46
2019-02-03T22:14:17.720Z,98734.52
2019-02-03T22:16:47.940Z,98736.16
2019-02-03T22:19:18.226Z,98742.56
2019-02-03T22:21:48.410Z,98752.73
2019-02-03T22:24:18.700Z,98747.62
2019-02-03T22:26:48.991Z,98746.16
2019-02-03T22:29:19.282Z,98752.22
2019-02-03T22:31:49.540Z,98751.87
2019-02-03T22:34:19.753Z,98748.28
2019-02-03T22:36:50.038Z,98750.23
2019-02-03T22:39:20.810Z,98760.72
2019-02-03T22:41:51.099Z,98753.83
2019-02-03T22:44:21.442Z,98757.45
2019-02-03T22:46:51.667Z,98763.33
2019-02-03T22:49:22.121Z,98763.34
2019-02-03T22:51:52.746Z,98782.03
2019-02-03T22:54:22.981Z,98770.23
2019-02-03T22:56:53.333Z,98768.59
2019-02-03T22:59:24.150Z,98777.12
2019-02-03T23:01:54.641Z,98776.45
2019-02-03T23:04:32.781Z,98782.03
2019-02-03T23:07:03.135Z,98789.08
2019-02-03T23:09:33.820Z,98791.06
2019-02-03T23:12:07.070Z,98798.73
2019-02-03T23:14:38.255Z,98802.03
2019-02-03T23:17:08.772Z,98808.61
2019-02-03T23:19:39.040Z,98803.38
2019-02-03T23:22:09.397Z,98814.15
2019-02-03T23:24:39.590Z,98810.72
2019-02-03T23:27:09.972Z,98811.21
2019-02-03T23:29:40.194Z,98818.89
2019-02-03T23:32:10.611Z,98824.32
2019-02-03T23:34:40.888Z,98824.80
2019-02-03T23:37:11.012Z,98823.97
2019-02-03T23:39:41.297Z,98822.80
2019-02-03T23:42:12.043Z,98820.35
2019-02-03T23:44:42.250Z,98828.22
2019-02-03T23:47:12.518Z,98828.52
2019-02-03T23:49:42.814Z,98833.77
2019-02-03T23:52:13.080Z,98835.56
2019-02-03T23:54:43.722Z,98839.19
2019-02-03T23:57:14.091Z,98844.23
2019-02-03T23:59:44.322Z,98843.27
